Time;durP1;ratioP1;P1;durP2;ratioP2;P2;SDS_P1;SDS_P2;PMS_P1;PMS_P2;Temp;Humidity;BMP_temperature;BMP_pressure;BME280_temperature;BME280_humidity;BME280_pressure;Samples;Min_cycle;Max_cycle;Signal;HPM_P1;HPM_P2
2023/01/30 00:00:00;;;;;;;11.43;9.43;;;;;;;-4.68;100.00;96398.00;5091409;28;24827;-73
2023/01/30 00:02:27;;;;;;;12.57;10.32;;;;;;;-4.59;100.00;96387.13;5085356;28;25002;-73
2023/01/30 00:04:53;;;;;;;9.88;8.82;;;;;;;-4.68;100.00;96386.22;5087564;28;24843;-73
2023/01/30 00:07:19;;;;;;;13.47;10.13;;;;;;;-4.73;100.00;96372.72;5103274;28;24812;-73
2023/01/30 00:09:46;;;;;;;14.30;11.50;;;;;;;-4.79;100.00;96372.66;5092431;28;24831;-73
2023/01/30 00:12:14;;;;;;;15.93;11.25;;;;;;;-4.95;100.00;96368.34;5093608;28;24472;-74
2023/01/30 00:14:40;;;;;;;14.75;11.20;;;;;;;-5.09;100.00;96352.25;5095442;28;24446;-73
2023/01/30 00:17:07;;;;;;;20.05;11.45;;;;;;;-5.15;100.00;96348.84;5099624;28;24484;-73
2023/01/30 00:19:33;;;;;;;13.80;10.95;;;;;;;-5.23;100.00;96347.09;5093997;28;24434;-73
2023/01/30 00:22:00;;;;;;;13.05;10.75;;;;;;;-5.21;100.00;96341.22;5098119;28;24429;-73
2023/01/30 00:24:26;;;;;;;12.70;10.35;;;;;;;-5.20;100.00;96344.59;5094086;28;24430;-73
2023/01/30 00:26:52;;;;;;;15.53;11.47;;;;;;;-5.13;100.00;96349.69;5104097;28;24490;-73
2023/01/30 00:29:20;;;;;;;14.68;10.93;;;;;;;-5.00;100.00;96349.81;5096399;28;24439;-72
2023/01/30 00:31:47;;;;;;;14.75;11.55;;;;;;;-4.92;100.00;96346.47;5093382;28;24453;-73
2023/01/30 00:34:13;;;;;;;18.92;13.00;;;;;;;-4.97;100.00;96334.66;5105065;28;24448;-73
2023/01/30 00:36:40;;;;;;;18.50;12.93;;;;;;;-5.07;100.00;96335.44;5093541;28;24442;-73
2023/01/30 00:39:06;;;;;;;17.98;13.52;;;;;;;-5.08;100.00;96333.72;5102233;28;24792;-73
2023/01/30 00:47:07;;;;;;;18.73;13.10;;;;;;;-5.18;100.00;96323.56;5103835;28;24436;-73
2023/01/30 00:49:35;;;;;;;17.50;13.65;;;;;;;-5.49;100.00;96334.25;5098910;28;24494;-73
2023/01/30 00:52:01;;;;;;;15.50;11.35;;;;;;;-5.52;100.00;96346.88;5098008;28;24451;-74
2023/01/30 00:54:28;;;;;;;12.80;10.60;;;;;;;-5.46;100.00;96344.38;5103726;28;24452;-72
2023/01/30 00:56:54;;;;;;;16.53;12.17;;;;;;;-5.40;100.00;96352.00;5103915;28;25084;-73
2023/01/30 00:59:21;;;;;;;13.40;12.00;;;;;;;-5.37;100.00;96355.41;5101872;28;25002;-73
2023/01/30 01:01:47;;;;;;;16.17;11.95;;;;;;;-5.37;100.00;96365.50;5102596;28;25001;-73
2023/01/30 01:04:15;;;;;;;14.07;11.68;;;;;;;-5.28;100.00;96379.88;5097441;28;24983;-73
2023/01/30 01:06:41;;;;;;;15.10;12.30;;;;;;;-5.62;100.00;96401.44;5094319;28;24499;-73
2023/01/30 01:09:08;;;;;;;15.50;12.45;;;;;;;-5.69;100.00;96414.81;5100260;28;24434;-73
2023/01/30 01:11:35;;;;;;;18.00;12.55;;;;;;;-5.90;100.00;96407.88;5088899;28;24477;-72
2023/01/30 01:14:04;;;;;;;14.00;11.63;;;;;;;-5.91;100.00;96416.25;5103674;28;24442;-73
2023/01/30 01:16:31;;;;;;;19.90;11.67;;;;;;;-5.87;100.00;96402.84;5097431;28;24444;-73
2023/01/30 01:18:58;;;;;;;17.02;12.05;;;;;;;-5.69;100.00;96399.69;5097390;28;24431;-73
2023/01/30 01:21:26;;;;;;;11.73;10.45;;;;;;;-5.50;100.00;96398.19;5102231;28;24445;-73
2023/01/30 01:23:53;;;;;;;11.68;10.32;;;;;;;-5.64;100.00;96413.19;5100777;28;24449;-73
2023/01/30 01:26:20;;;;;;;11.30;10.10;;;;;;;-5.71;100.00;96424.91;5099647;28;24436;-72
2023/01/30 01:28:47;;;;;;;12.93;10.38;;;;;;;-5.59;100.00;96406.53;5102855;28;24527;-73
2023/01/30 01:31:15;;;;;;;12.32;10.02;;;;;;;-5.63;100.00;96400.59;5094435;28;24434;-73
2023/01/30 01:33:42;;;;;;;12.13;10.35;;;;;;;-5.93;100.00;96405.34;5108202;28;24941;-73
2023/01/30 01:36:08;;;;;;;14.25;10.10;;;;;;;-5.83;100.00;96404.59;5101035;28;24445;-73
2023/01/30 01:38:37;;;;;;;14.27;10.70;;;;;;;-5.82;100.00;96402.91;5099506;28;24437;-73
2023/01/30 01:41:05;;;;;;;12.02;10.27;;;;;;;-5.62;100.00;96379.56;5101825;28;24433;-73
2023/01/30 01:43:33;;;;;;;13.52;10.77;;;;;;;-5.67;100.00;96388.78;5096896;28;24779;-73
2023/01/30 01:46:06;;;;;;;16.23;11.13;;;;;;;-5.57;100.00;96381.28;5101665;28;24825;-73
2023/01/30 01:48:36;;;;;;;11.80;10.32;;;;;;;-5.43;100.00;96375.53;5090759;28;24999;-73
2023/01/30 01:51:05;;;;;;;12.80;10.63;;;;;;;-5.39;100.00;96374.72;5093440;28;24442;-73
2023/01/30 01:53:38;;;;;;;17.20;12.10;;;;;;;-5.48;100.00;96386.44;5095154;28;25035;-73
2023/01/30 01:56:07;;;;;;;11.73;10.53;;;;;;;-5.24;100.00;96376.53;5104350;28;24436;-73
2023/01/30 01:58:37;;;;;;;17.00;10.68;;;;;;;-5.15;100.00;96361.47;5096388;28;24446;-74
2023/01/30 02:01:04;;;;;;;13.77;9.80;;;;;;;-5.06;100.00;96368.28;5095463;28;24433;-73
2023/01/30 02:03:36;;;;;;;10.57;9.40;;;;;;;-5.67;100.00;96400.56;5091821;28;24524;-74
2023/01/30 02:06:04;;;;;;;13.63;10.90;;;;;;;-5.68;100.00;96398.84;5086813;28;24443;-73
2023/01/30 02:08:34;;;;;;;11.88;10.68;;;;;;;-5.76;100.00;96400.44;5105727;28;24437;-74
2023/01/30 02:11:07;;;;;;;14.07;11.10;;;;;;;-5.70;100.00;96414.00;5095023;28;24437;-73
2023/01/30 02:13:34;;;;;;;14.80;11.15;;;;;;;-5.64;100.00;96403.94;5106230;28;24438;-73
2023/01/30 02:16:02;;;;;;;13.75;11.23;;;;;;;-5.68;100.00;96409.78;5091115;28;24430;-71
2023/01/30 02:18:32;;;;;;;12.88;11.00;;;;;;;-5.57;100.00;96393.91;5093018;28;24433;-73
2023/01/30 02:21:20;;;;;;;13.80;11.23;;;;;;;-5.55;100.00;96383.00;5095422;28;24437;-72
2023/01/30 02:24:28;;;;;;;14.77;11.55;;;;;;;-5.60;100.00;96382.09;5099923;28;24456;-73
2023/01/30 02:27:09;;;;;;;17.38;12.10;;;;;;;-5.74;100.00;96366.84;5100887;28;24438;-72
2023/01/30 02:30:03;;;;;;;13.75;11.35;;;;;;;-5.72;100.00;96364.31;5099803;28;24441;-73
2023/01/30 02:32:36;;;;;;;14.93;11.73;;;;;;;-5.93;100.00;96380.97;5089967;28;24531;-73
2023/01/30 02:35:10;;;;;;;14.40;11.40;;;;;;;-6.05;100.00;96395.13;5099984;28;24979;-72
2023/01/30 02:37:54;;;;;;;15.05;12.02;;;;;;;-6.10;100.00;96400.94;5093991;28;24437;-72
2023/01/30 02:40:38;;;;;;;15.10;11.60;;;;;;;-5.81;100.00;96384.44;5103368;28;24440;-72
2023/01/30 02:43:15;;;;;;;13.75;11.32;;;;;;;-5.69;100.00;96355.13;5099027;28;24441;-73
2023/01/30 02:45:50;;;;;;;15.00;11.20;;;;;;;-5.60;100.00;96341.72;5105491;28;24434;-72
2023/01/30 02:48:24;;;;;;;15.10;11.33;;;;;;;-5.84;100.00;96347.41;5086683;28;24441;-72
2023/01/30 02:50:56;;;;;;;13.40;11.18;;;;;;;-5.86;100.00;96364.19;5095614;28;24433;-72
2023/01/30 02:53:23;;;;;;;12.57;11.02;;;;;;;-5.96;100.00;96375.06;5098259;28;24461;-73
2023/01/30 02:55:50;;;;;;;15.73;11.40;;;;;;;-5.73;100.00;96350.03;5104575;28;24437;-72
2023/01/30 02:58:21;;;;;;;12.60;11.15;;;;;;;-5.60;100.00;96372.88;5090488;28;24444;-73
2023/01/30 03:01:14;;;;;;;15.10;11.23;;;;;;;-5.46;100.00;96362.06;5091764;28;24565;-72
2023/01/30 03:04:00;;;;;;;13.80;10.85;;;;;;;-5.40;100.00;96357.06;5088462;28;24441;-72
2023/01/30 03:07:01;;;;;;;11.70;9.27;;;;;;;-5.42;100.00;96343.56;5089059;28;24438;-73
2023/01/30 03:09:37;;;;;;;11.65;10.00;;;;;;;-5.34;100.00;96339.44;5092401;28;24441;-72
2023/01/30 03:12:11;;;;;;;16.43;11.23;;;;;;;-5.53;100.00;96328.34;5096193;28;24449;-73
2023/01/30 03:14:46;;;;;;;13.30;11.27;;;;;;;-5.58;100.00;96324.09;5094895;28;24449;-73
2023/01/30 03:17:15;;;;;;;13.63;11.75;;;;;;;-5.62;100.00;96318.19;5095359;28;24429;-72
2023/01/30 03:19:43;;;;;;;13.07;11.60;;;;;;;-5.64;100.00;96297.13;5094812;28;24430;-72
2023/01/30 03:22:10;;;;;;;16.30;11.60;;;;;;;-5.63;100.00;96266.03;5098031;28;24433;-72
2023/01/30 03:24:36;;;;;;;14.45;11.38;;;;;;;-5.64;100.00;96264.31;5097263;28;24441;-72
2023/01/30 03:27:07;;;;;;;15.60;12.13;;;;;;;-5.46;100.00;96251.00;5095022;28;24788;-73
2023/01/30 03:29:34;;;;;;;13.90;11.73;;;;;;;-5.46;100.00;96226.59;5096232;28;24465;-73
2023/01/30 03:32:00;;;;;;;12.80;11.13;;;;;;;-5.41;100.00;96217.38;5095936;28;25003;-72
2023/01/30 03:34:27;;;;;;;15.60;11.77;;;;;;;-5.35;100.00;96204.78;5104441;28;24804;-72
2023/01/30 03:36:55;;;;;;;15.15;11.57;;;;;;;-5.15;100.00;96220.06;5089192;28;25004;-73
2023/01/30 03:39:23;;;;;;;13.63;11.85;;;;;;;-4.77;100.00;96224.44;5102023;28;24785;-73
2023/01/30 03:41:49;;;;;;;13.50;12.10;;;;;;;-4.45;100.00;96222.03;5094517;28;24434;-72
2023/01/30 03:44:16;;;;;;;14.50;11.98;;;;;;;-4.39;100.00;96241.41;5093458;28;24444;-73
2023/01/30 03:46:42;;;;;;;15.98;12.68;;;;;;;-4.34;100.00;96261.66;5096694;28;24438;-72
2023/01/30 03:49:09;;;;;;;14.82;12.75;;;;;;;-4.29;100.00;96277.69;5090230;28;24438;-72
2023/01/30 03:51:35;;;;;;;16.23;10.97;;;;;;;-4.35;100.00;96255.75;5100833;28;24588;-72
2023/01/30 03:54:03;;;;;;;14.05;11.75;;;;;;;-4.28;100.00;96259.16;5090539;28;24470;-72
2023/01/30 03:56:30;;;;;;;12.90;11.60;;;;;;;-4.23;100.00;96278.53;5097938;28;24480;-73
2023/01/30 03:58:57;;;;;;;13.48;12.05;;;;;;;-4.12;100.00;96260.88;5097480;28;24444;-72
2023/01/30 04:01:23;;;;;;;16.67;11.95;;;;;;;-4.03;100.00;96253.31;5094683;28;24448;-72
2023/01/30 04:03:51;;;;;;;16.08;12.27;;;;;;;-3.94;100.00;96265.13;5090252;28;24431;-72
2023/01/30 04:06:17;;;;;;;13.63;12.05;;;;;;;-3.95;100.00;96265.97;5085403;28;24800;-73
2023/01/30 04:08:43;;;;;;;15.07;13.15;;;;;;;-3.91;100.00;96255.84;5101686;28;24824;-72
2023/01/30 04:11:11;;;;;;;13.00;11.60;;;;;;;-3.93;100.00;96246.56;5089681;28;24835;-73
2023/01/30 04:13:38;;;;;;;14.70;11.57;;;;;;;-3.92;100.00;96248.28;5098562;28;24873;-72
2023/01/30 04:16:16;;;;;;;15.80;12.73;;;;;;;-3.92;100.00;96246.56;5087012;28;25018;-72
2023/01/30 04:18:42;;;;;;;18.00;12.77;;;;;;;-3.91;100.00;96242.34;5086730;28;24534;-72
2023/01/30 04:21:09;;;;;;;16.42;11.82;;;;;;;-3.87;100.00;96238.13;5091211;28;25025;-72
2023/01/30 04:23:35;;;;;;;14.85;11.18;;;;;;;-3.93;100.00;96246.56;5099779;28;24429;-72
2023/01/30 04:26:01;;;;;;;11.65;10.48;;;;;;;-3.88;100.00;96246.59;5100541;28;24449;-72
2023/01/30 04:28:29;;;;;;;17.90;12.75;;;;;;;-3.92;100.00;96253.31;5098559;28;24479;-72
2023/01/30 04:30:56;;;;;;;13.02;11.73;;;;;;;-3.85;100.00;96249.97;5095104;28;24430;-72
2023/01/30 04:33:22;;;;;;;12.57;11.38;;;;;;;-3.89;100.00;96250.81;5103129;28;24465;-72
2023/01/30 04:35:52;;;;;;;14.43;12.30;;;;;;;-3.85;100.00;96257.56;5107722;28;24436;-72
2023/01/30 04:38:19;;;;;;;13.07;11.70;;;;;;;-3.81;100.00;96260.94;5097313;28;24998;-72
2023/01/30 04:40:48;;;;;;;13.18;10.77;;;;;;;-3.84;100.00;96258.41;5105556;28;24429;-72
2023/01/30 04:43:14;;;;;;;14.43;11.07;;;;;;;-3.75;100.00;96260.91;5096663;28;24447;-72
2023/01/30 04:45:44;;;;;;;14.05;11.15;;;;;;;-3.77;100.00;96258.41;5096271;28;24436;-72
2023/01/30 04:48:10;;;;;;;14.18;10.73;;;;;;;-3.80;100.00;96255.84;5103038;28;24994;-72
2023/01/30 04:50:37;;;;;;;14.63;11.43;;;;;;;-3.77;100.00;96263.47;5105500;28;24437;-72
2023/01/30 04:53:04;;;;;;;12.45;10.85;;;;;;;-3.75;100.00;96269.34;5096341;28;24820;-72
2023/01/30 04:55:30;;;;;;;11.68;10.35;;;;;;;-3.72;100.00;96258.41;5095374;28;24838;-72
2023/01/30 04:57:57;;;;;;;12.02;10.73;;;;;;;-3.67;100.00;96262.63;5103797;28;24899;-72
2023/01/30 05:00:24;;;;;;;13.18;10.20;;;;;;;-3.60;100.00;96265.16;5095587;28;25006;-72
2023/01/30 05:02:52;;;;;;;12.20;10.63;;;;;;;-3.52;100.00;96261.78;5089696;28;25046;-72
2023/01/30 05:05:18;;;;;;;10.77;9.57;;;;;;;-3.54;100.00;96263.47;5092934;28;24433;-72
2023/01/30 05:07:45;;;;;;;11.18;9.65;;;;;;;-3.58;100.00;96255.88;5103961;28;24445;-72
2023/01/30 05:10:11;;;;;;;10.90;9.80;;;;;;;-3.57;100.00;96248.28;5097698;28;24441;-72
2023/01/30 05:12:38;;;;;;;14.50;10.30;;;;;;;-3.59;100.00;96241.53;5092153;28;24800;-72
2023/01/30 05:15:05;;;;;;;10.73;9.65;;;;;;;-3.62;100.00;96242.38;5096040;28;24434;-73
2023/01/30 05:17:32;;;;;;;11.13;10.00;;;;;;;-3.63;100.00;96245.75;5095184;28;25097;-73
2023/01/30 05:20:00;;;;;;;12.07;10.80;;;;;;;-3.58;100.00;96235.63;5098523;28;25042;-73
2023/01/30 05:22:26;;;;;;;11.65;10.45;;;;;;;-3.53;100.00;96224.63;5083737;28;24442;-73
2023/01/30 05:24:53;;;;;;;14.13;11.00;;;;;;;-3.59;100.00;96228.88;5100368;28;24445;-73
2023/01/30 05:27:19;;;;;;;11.13;9.93;;;;;;;-3.53;100.00;96218.72;5102884;28;25018;-73
2023/01/30 05:29:46;;;;;;;11.60;10.40;;;;;;;-3.51;100.00;96222.97;5095340;28;24801;-73
2023/01/30 05:32:13;;;;;;;12.88;10.23;;;;;;;-3.52;100.00;96210.28;5102195;28;24803;-72
2023/01/30 05:34:40;;;;;;;11.45;9.52;;;;;;;-3.51;100.00;96206.94;5104837;28;24449;-74
2023/01/30 05:37:09;;;;;;;10.30;9.20;;;;;;;-3.52;100.00;96217.88;5089375;28;24465;-73
2023/01/30 05:39:35;;;;;;;10.65;8.88;;;;;;;-3.48;100.00;96217.91;5098502;28;24983;-73
2023/01/30 05:42:02;;;;;;;11.53;9.37;;;;;;;-3.50;100.00;96213.66;5092009;28;25374;-73
2023/01/30 05:44:28;;;;;;;12.02;9.90;;;;;;;-3.47;100.00;96221.28;5086521;28;24916;-73
2023/01/30 05:46:55;;;;;;;12.20;10.35;;;;;;;-3.44;100.00;96219.56;5090283;28;24431;-73
2023/01/30 05:49:21;;;;;;;13.57;9.48;;;;;;;-3.42;100.00;96217.88;5100039;28;24436;-73
2023/01/30 05:51:48;;;;;;;12.77;9.30;;;;;;;-3.39;100.00;96216.19;5090490;28;24478;-73
2023/01/30 05:54:16;;;;;;;11.80;8.98;;;;;;;-3.36;100.00;96217.03;5095631;28;24454;-73
2023/01/30 05:56:42;;;;;;;9.87;8.90;;;;;;;-3.26;100.00;96212.81;5100347;28;25016;-73
2023/01/30 05:59:11;;;;;;;11.43;8.75;;;;;;;-3.25;100.00;96197.59;5104860;28;24967;-73
2023/01/30 06:01:38;;;;;;;10.05;8.77;;;;;;;-3.25;100.00;96199.28;5086349;28;24458;-74
2023/01/30 06:04:04;;;;;;;9.75;8.65;;;;;;;-3.24;100.00;96193.38;5092996;28;24458;-73
2023/01/30 06:06:31;;;;;;;10.23;9.13;;;;;;;-3.24;100.00;96194.19;5092254;28;24639;-73
2023/01/30 06:08:57;;;;;;;12.07;8.32;;;;;;;-3.23;100.00;96200.94;5094568;28;24439;-73
2023/01/30 06:11:25;;;;;;;8.95;8.05;;;;;;;-3.13;100.00;96206.84;5092350;28;24440;-73
2023/01/30 06:13:52;;;;;;;9.40;8.27;;;;;;;-3.14;100.00;96209.41;5032299;28;1735956;-73
2023/01/30 06:16:19;;;;;;;9.07;8.18;;;;;;;-3.14;100.00;96202.63;5086711;28;24438;-73
2023/01/30 06:18:46;;;;;;;9.07;8.10;;;;;;;-3.04;100.00;96196.69;5092310;28;24437;-74
2023/01/30 06:21:14;;;;;;;9.07;7.57;;;;;;;-3.06;100.00;96189.94;5095502;28;24487;-73
2023/01/30 06:23:40;;;;;;;11.50;8.68;;;;;;;-3.11;100.00;96181.53;5087643;28;24792;-72
2023/01/30 06:26:08;;;;;;;10.32;8.20;;;;;;;-3.06;100.00;96183.19;5095860;28;24446;-72
2023/01/30 06:28:36;;;;;;;10.45;8.75;;;;;;;-3.07;100.00;96178.97;5102910;28;24432;-72
2023/01/30 06:31:05;;;;;;;14.43;11.32;;;;;;;-3.06;100.00;96180.66;5101831;28;24808;-72
2023/01/30 06:33:31;;;;;;;10.90;8.77;;;;;;;-2.99;100.00;96184.00;5100609;28;25033;-72
2023/01/30 06:35:58;;;;;;;11.82;8.70;;;;;;;-3.00;100.00;96179.81;5104956;28;25009;-72
2023/01/30 06:38:24;;;;;;;10.67;8.53;;;;;;;-2.97;100.00;96177.22;5098813;28;24441;-72
2023/01/30 06:40:51;;;;;;;10.40;9.15;;;;;;;-3.00;100.00;96169.66;5105242;28;25026;-72
2023/01/30 06:43:18;;;;;;;13.13;9.02;;;;;;;-3.04;100.00;96170.50;5087215;28;24427;-72
2023/01/30 06:45:45;;;;;;;10.38;9.13;;;;;;;-3.05;100.00;96173.88;5097570;28;24441;-72
2023/01/30 06:48:12;;;;;;;14.32;9.25;;;;;;;-3.11;100.00;96167.16;5101186;28;24746;-72
2023/01/30 06:50:38;;;;;;;9.32;8.35;;;;;;;-3.08;100.00;96172.19;5094158;28;24479;-72
2023/01/30 06:53:07;;;;;;;8.80;7.90;;;;;;;-3.05;100.00;96166.28;5092204;28;25007;-72
2023/01/30 06:55:35;;;;;;;9.10;8.20;;;;;;;-2.90;100.00;96155.25;5094919;28;24440;-72
2023/01/30 06:58:02;;;;;;;11.00;8.20;;;;;;;-2.89;100.00;96147.66;5088414;28;24434;-72
2023/01/30 07:00:29;;;;;;;10.52;7.65;;;;;;;-2.90;100.00;96145.09;5092449;28;24812;-72
2023/01/30 07:02:57;;;;;;;8.75;7.78;;;;;;;-2.85;100.00;96153.56;5097009;28;24446;-73
2023/01/30 07:05:24;;;;;;;8.13;7.35;;;;;;;-2.85;100.00;96163.69;5091631;28;24465;-72
2023/01/30 07:07:51;;;;;;;8.95;7.80;;;;;;;-2.77;100.00;96169.56;5097662;28;24465;-72
2023/01/30 07:10:18;;;;;;;10.65;7.85;;;;;;;-2.84;100.00;96183.13;5089472;28;24461;-73
2023/01/30 07:12:45;;;;;;;8.30;7.50;;;;;;;-2.83;100.00;96184.78;5091219;28;24816;-73
2023/01/30 07:15:11;;;;;;;7.65;6.95;;;;;;;-2.72;100.00;96188.13;5095043;28;24432;-73
2023/01/30 07:17:40;;;;;;;7.75;7.00;;;;;;;-2.67;100.00;96188.94;5094230;28;24442;-73
2023/01/30 07:20:10;;;;;;;8.77;7.90;;;;;;;-2.75;100.00;96204.19;5100455;28;24522;-73
2023/01/30 07:22:36;;;;;;;11.03;9.43;;;;;;;-2.71;100.00;96212.63;5102054;28;25033;-71
2023/01/30 07:25:03;;;;;;;10.55;8.95;;;;;;;-2.69;100.00;96203.31;5105358;28;24433;-73
2023/01/30 07:27:30;;;;;;;12.20;8.50;;;;;;;-2.59;100.00;96206.69;5090956;28;24513;-73
2023/01/30 07:29:56;;;;;;;11.13;9.90;;;;;;;-2.58;100.00;96211.72;5100963;28;24751;-72
2023/01/30 07:32:23;;;;;;;12.85;10.13;;;;;;;-2.64;100.00;96221.03;5094078;28;25002;-73
2023/01/30 07:34:49;;;;;;;11.88;7.93;;;;;;;-2.59;100.00;96209.22;5100890;28;24458;-74
2023/01/30 07:37:17;;;;;;;10.05;7.90;;;;;;;-2.62;100.00;96216.81;5096282;28;24429;-74
2023/01/30 07:39:44;;;;;;;10.75;8.05;;;;;;;-2.61;100.00;96213.44;5097033;28;24851;-77
2023/01/30 07:42:10;;;;;;;8.48;7.57;;;;;;;-2.62;100.00;96209.22;5095090;28;24821;-73
2023/01/30 07:44:37;;;;;;;9.27;6.95;;;;;;;-2.60;100.00;96215.09;5087717;28;24777;-74
2023/01/30 07:47:03;;;;;;;12.15;8.93;;;;;;;-2.57;100.00;96223.53;5099225;28;24967;-74
2023/01/30 07:49:30;;;;;;;11.27;8.43;;;;;;;-2.47;100.00;96221.81;5092952;28;24438;-74
2023/01/30 07:51:56;;;;;;;13.30;8.73;;;;;;;-2.46;100.00;96228.56;5094543;28;24444;-73
2023/01/30 07:54:25;;;;;;;13.40;9.00;;;;;;;-2.51;100.00;96205.78;5089610;28;24824;-73
2023/01/30 07:56:52;;;;;;;21.35;10.00;;;;;;;-2.50;100.00;96227.75;5101841;28;24443;-73
2023/01/30 07:59:18;;;;;;;15.90;9.48;;;;;;;-2.44;100.00;96215.03;5088068;28;25016;-73
2023/01/30 08:01:45;;;;;;;12.93;9.05;;;;;;;-2.37;100.00;96203.19;5089288;28;24982;-73
2023/01/30 08:04:11;;;;;;;11.70;8.50;;;;;;;-2.43;100.00;96200.66;5092719;28;24801;-73
2023/01/30 08:06:38;;;;;;;11.38;8.23;;;;;;;-2.42;100.00;96194.72;5093750;28;24822;-73
2023/01/30 08:09:06;;;;;;;10.15;8.27;;;;;;;-2.42;100.00;96196.44;5096172;28;24503;-73
2023/01/30 08:11:34;;;;;;;8.68;7.78;;;;;;;-2.39;100.00;96219.25;5097678;28;24438;-74
2023/01/30 08:14:00;;;;;;;12.25;7.53;;;;;;;-2.39;100.00;96221.78;5097821;28;24462;-73
2023/01/30 08:16:27;;;;;;;8.68;7.70;;;;;;;-2.35;100.00;96236.13;5098841;28;24440;-74
2023/01/30 08:18:53;;;;;;;8.73;7.20;;;;;;;-2.36;100.00;96240.38;5092948;28;24533;-69
2023/01/30 08:21:20;;;;;;;10.63;7.90;;;;;;;-2.31;100.00;96245.41;5102315;28;24826;-72
2023/01/30 08:23:47;;;;;;;10.40;7.95;;;;;;;-2.28;100.00;96236.09;5096112;28;24445;-73
2023/01/30 08:26:13;;;;;;;10.35;8.02;;;;;;;-2.28;100.00;96233.56;5103481;28;24459;-73
2023/01/30 08:28:41;;;;;;;8.98;7.25;;;;;;;-2.26;100.00;96223.41;5095165;28;24440;-72
2023/01/30 08:31:10;;;;;;;8.20;7.07;;;;;;;-2.19;100.00;96219.97;5093415;28;24514;-73
2023/01/30 08:33:36;;;;;;;9.02;7.70;;;;;;;-2.21;100.00;96225.06;5099753;28;24463;-73
2023/01/30 08:36:03;;;;;;;9.38;7.55;;;;;;;-2.15;100.00;96214.03;5101373;28;24433;-73
2023/01/30 08:38:29;;;;;;;9.77;7.25;;;;;;;-2.09;100.00;96223.31;5093861;28;24426;-73
2023/01/30 08:40:56;;;;;;;12.10;8.10;;;;;;;-1.92;100.00;96223.22;5097745;28;24441;-73
2023/01/30 08:43:23;;;;;;;10.02;7.97;;;;;;;-1.73;100.00;96212.91;5089003;28;25048;-72
2023/01/30 08:45:53;;;;;;;10.68;7.20;;;;;;;-1.57;100.00;96217.84;5095027;28;24441;-73
2023/01/30 08:48:19;;;;;;;10.50;8.27;;;;;;;-1.42;100.00;96214.34;5091774;28;24517;-72
2023/01/30 08:50:46;;;;;;;11.88;7.65;;;;;;;-1.36;100.00;96207.50;5095411;28;24437;-73
2023/01/30 08:53:12;;;;;;;7.70;6.97;;;;;;;-1.19;100.00;96193.78;5098678;28;24441;-73
2023/01/30 08:55:39;;;;;;;9.68;7.40;;;;;;;-1.10;100.00;96194.53;5099824;28;25015;-74
2023/01/30 08:58:06;;;;;;;7.22;6.10;;;;;;;-1.00;100.00;96208.00;5101494;28;24987;-76
2023/01/30 09:00:32;;;;;;;6.75;5.85;;;;;;;-0.89;100.00;96193.47;5096394;28;24808;-73
2023/01/30 09:03:00;;;;;;;7.00;4.90;;;;;;;-0.61;100.00;96188.03;5095354;28;24437;-73
2023/01/30 09:05:28;;;;;;;4.57;4.15;;;;;;;-0.46;100.00;96171.75;5100457;28;24441;-73
2023/01/30 09:07:55;;;;;;;5.32;4.35;;;;;;;-0.19;100.00;96160.34;5105496;28;24433;-73
2023/01/30 09:10:23;;;;;;;4.82;4.22;;;;;;;-0.02;100.00;96155.84;5096301;28;24433;-73
2023/01/30 09:12:49;;;;;;;4.65;4.15;;;;;;;0.30;100.00;96164.66;5104052;28;24444;-73
2023/01/30 09:15:16;;;;;;;3.17;2.78;;;;;;;0.47;100.00;96158.44;5100265;28;24453;-73
2023/01/30 09:17:43;;;;;;;3.90;2.38;;;;;;;0.64;100.00;96155.59;5094887;28;24458;-73
2023/01/30 09:20:12;;;;;;;2.67;2.22;;;;;;;0.75;100.00;96157.13;5101279;28;24834;-73
2023/01/30 09:22:39;;;;;;;2.00;1.80;;;;;;;0.86;100.00;96156.06;5095820;28;24438;-74
2023/01/30 09:25:07;;;;;;;2.20;1.90;;;;;;;0.96;100.00;96172.88;5103360;28;24437;-73
2023/01/30 09:27:33;;;;;;;2.13;1.80;;;;;;;1.11;100.00;96163.22;5096319;28;24434;-73
2023/01/30 09:30:00;;;;;;;2.80;1.88;;;;;;;0.93;100.00;96169.53;5096293;28;24441;-73
2023/01/30 09:32:26;;;;;;;2.35;2.03;;;;;;;1.00;100.00;96168.53;5098375;28;24469;-73
2023/01/30 09:34:53;;;;;;;2.40;2.20;;;;;;;0.90;100.00;96164.47;5081486;28;24468;-72
2023/01/30 09:37:21;;;;;;;2.17;1.80;;;;;;;0.76;100.00;96162.19;5086340;28;24438;-75
2023/01/30 09:39:47;;;;;;;2.40;1.90;;;;;;;0.67;100.00;96170.00;5088130;28;24438;-74
2023/01/30 09:42:38;;;;;;;2.72;2.08;;;;;;;0.68;100.00;96171.69;5093270;28;24448;-74
2023/01/30 09:45:26;;;;;;;2.72;2.10;;;;;;;0.49;100.00;96173.72;5095247;28;24427;-74
2023/01/30 09:48:01;;;;;;;6.20;2.40;;;;;;;0.46;100.00;96179.69;5099355;28;24438;-74
2023/01/30 09:50:44;;;;;;;2.47;2.20;;;;;;;0.45;100.00;96169.53;5095488;28;24437;-74
2023/01/30 09:53:21;;;;;;;2.08;1.88;;;;;;;0.54;100.00;96164.25;5091572;28;24438;-73
2023/01/30 09:55:48;;;;;;;3.33;1.90;;;;;;;0.45;100.00;96157.63;5100924;28;24461;-74
2023/01/30 09:58:19;;;;;;;4.47;3.22;;;;;;;0.47;100.00;96155.88;5102945;28;24436;-74
2023/01/30 10:00:47;;;;;;;3.95;2.40;;;;;;;0.43;100.00;96155.97;5090890;28;24439;-74
2023/01/30 10:03:17;;;;;;;4.65;3.67;;;;;;;0.33;100.00;96141.69;5091597;28;24994;-73
2023/01/30 10:05:46;;;;;;;4.25;3.15;;;;;;;0.40;100.00;96140.72;5101587;28;24434;-73
2023/01/30 10:08:32;;;;;;;2.75;2.40;;;;;;;0.39;100.00;96139.03;5109681;28;24441;-73
2023/01/30 10:11:05;;;;;;;2.47;2.15;;;;;;;0.36;100.00;96128.91;5098201;28;24430;-74
2023/01/30 10:13:47;;;;;;;3.08;1.73;;;;;;;0.39;100.00;96133.94;5103151;28;24446;-74
2023/01/30 10:16:21;;;;;;;3.72;2.10;;;;;;;0.38;100.00;96124.63;5097672;28;24437;-73
2023/01/30 10:19:22;;;;;;;2.37;2.17;;;;;;;0.39;100.00;96133.94;5096075;28;24543;-73
2023/01/30 10:21:59;;;;;;;2.30;2.10;;;;;;;0.35;100.00;96134.88;5091139;28;24440;-73
2023/01/30 10:24:38;;;;;;;2.60;2.00;;;;;;;0.29;100.00;96125.63;5095722;28;24890;-72
2023/01/30 10:27:11;;;;;;;2.60;2.17;;;;;;;0.27;100.00;96126.53;5094580;28;24441;-72
2023/01/30 10:29:41;;;;;;;3.17;2.53;;;;;;;0.23;100.00;96118.09;5097502;28;25105;-71
2023/01/30 10:32:14;;;;;;;2.53;2.13;;;;;;;0.20;100.00;96118.13;5106301;28;24442;-72
2023/01/30 10:34:45;;;;;;;2.53;2.20;;;;;;;0.17;100.00;96126.66;5103696;28;25211;-71
2023/01/30 10:37:17;;;;;;;2.90;2.60;;;;;;;0.18;100.00;96128.34;5093169;28;25031;-74
2023/01/30 10:39:52;;;;;;;4.78;3.17;;;;;;;0.17;100.00;96125.81;5094511;28;24445;-71
2023/01/30 10:42:26;;;;;;;4.50;3.95;;;;;;;0.11;100.00;96118.28;5101012;28;24437;-71
2023/01/30 10:44:55;;;;;;;11.25;7.50;;;;;;;0.11;100.00;96108.97;5093378;28;24430;-72
2023/01/30 10:47:33;;;;;;;3.60;2.78;;;;;;;0.08;100.00;96110.72;5094167;28;24504;-73
2023/01/30 10:50:11;;;;;;;3.47;2.83;;;;;;;0.13;100.00;96102.13;5088944;28;24437;-73
2023/01/30 10:52:44;;;;;;;10.45;4.50;;;;;;;-0.03;100.00;96106.63;5101636;28;24430;-72
2023/01/30 10:55:19;;;;;;;5.43;3.13;;;;;;;0.00;100.00;96103.19;5097185;28;24446;-72
2023/01/30 10:57:53;;;;;;;5.30;3.28;;;;;;;0.01;100.00;96093.84;5100347;28;24441;-73
2023/01/30 11:00:28;;;;;;;3.67;3.30;;;;;;;0.00;100.00;96100.66;5092003;28;24434;-73
2023/01/30 11:03:09;;;;;;;6.80;4.40;;;;;;;0.01;100.00;96104.03;5098668;28;24542;-72
2023/01/30 11:05:44;;;;;;;4.30;3.37;;;;;;;-0.01;100.00;96098.94;5090195;28;24433;-72
2023/01/30 11:08:24;;;;;;;11.80;6.10;;;;;;;-0.02;100.00;96095.56;5095425;28;24434;-72
2023/01/30 11:10:53;;;;;;;5.13;4.38;;;;;;;-0.01;100.00;96099.78;5096471;28;24435;-72
2023/01/30 11:13:23;;;;;;;5.43;3.90;;;;;;;-0.01;100.00;96104.88;5098066;28;24602;-71
2023/01/30 11:15:53;;;;;;;4.28;3.80;;;;;;;-0.01;100.00;96107.41;5087394;28;24450;-73
2023/01/30 11:18:21;;;;;;;4.03;3.20;;;;;;;0.00;100.00;96103.19;5095285;28;24441;-72
2023/01/30 11:21:01;;;;;;;4.20;3.60;;;;;;;0.04;100.00;96101.41;5095101;28;24430;-72
2023/01/30 11:23:32;;;;;;;5.68;3.78;;;;;;;0.03;100.00;96085.28;5089219;28;24991;-72
2023/01/30 11:26:02;;;;;;;3.72;3.22;;;;;;;0.04;100.00;96081.91;5096959;28;24429;-72
2023/01/30 11:28:35;;;;;;;3.80;3.40;;;;;;;0.07;100.00;96079.28;5099141;28;24440;-71
2023/01/30 11:31:02;;;;;;;3.30;3.00;;;;;;;0.10;100.00;96078.41;5103452;28;24469;-72